createdAt,value
2018-01-02T00:00:10.711Z,0
2018-01-02T00:01:11.369Z,0
2018-01-02T00:02:12.028Z,0
2018-01-02T00:03:12.726Z,0
2018-01-02T00:04:13.415Z,0
2018-01-02T00:05:14.045Z,0
2018-01-02T00:06:14.704Z,0
2018-01-02T00:07:15.363Z,0
2018-01-02T00:08:16.025Z,0
2018-01-02T00:09:16.684Z,0
2018-01-02T00:10:17.344Z,0
2018-01-02T00:11:18.006Z,0
2018-01-02T00:12:18.702Z,0
2018-01-02T00:13:19.398Z,0
2018-01-02T00:14:20.057Z,0
2018-01-02T00:15:20.717Z,0
2018-01-02T00:16:21.377Z,0
2018-01-02T00:17:22.037Z,0
2018-01-02T00:18:22.695Z,0
2018-01-02T00:19:23.390Z,0
2018-01-02T00:20:24.049Z,0
2018-01-02T00:21:24.707Z,0
2018-01-02T00:22:25.366Z,0
2018-01-02T00:23:26.023Z,0
2018-01-02T00:24:26.680Z,0
2018-01-02T00:25:27.341Z,0
2018-01-02T00:26:27.999Z,0
2018-01-02T00:27:28.663Z,0
2018-01-02T00:28:29.317Z,0
2018-01-02T00:29:29.977Z,0
2018-01-02T00:30:30.637Z,0
2018-01-02T00:31:31.296Z,0
2018-01-02T00:32:31.954Z,0
2018-01-02T00:33:32.614Z,0
2018-01-02T00:34:33.272Z,0
2018-01-02T00:35:33.930Z,0
2018-01-02T00:36:34.590Z,0
2018-01-02T00:37:35.248Z,0
2018-01-02T00:38:35.905Z,0
2018-01-02T00:39:36.564Z,0
2018-01-02T00:40:37.222Z,0
2018-01-02T00:41:37.880Z,0
2018-01-02T00:42:38.540Z,0
2018-01-02T00:43:39.198Z,0
2018-01-02T00:44:39.858Z,0
2018-01-02T00:45:40.518Z,0
2018-01-02T00:46:41.177Z,0
2018-01-02T00:47:41.837Z,0
2018-01-02T00:48:42.495Z,0
2018-01-02T00:49:43.155Z,0
2018-01-02T00:50:43.816Z,0
2018-01-02T00:51:44.475Z,0
2018-01-02T00:52:45.135Z,0
2018-01-02T00:53:45.795Z,0
2018-01-02T00:54:46.454Z,0
2018-01-02T00:55:47.114Z,0
2018-01-02T00:56:47.774Z,0
2018-01-02T00:57:48.434Z,0
2018-01-02T00:58:49.096Z,0
2018-01-02T00:59:49.753Z,0
2018-01-02T01:00:50.411Z,0
2018-01-02T01:01:51.071Z,0
2018-01-02T01:02:51.732Z,0
2018-01-02T01:03:52.392Z,0
2018-01-02T01:04:53.051Z,0
2018-01-02T01:05:53.711Z,0
2018-01-02T01:06:54.371Z,0
2018-01-02T01:07:55.032Z,0
2018-01-02T01:08:55.691Z,0
2018-01-02T01:09:56.351Z,0
2018-01-02T01:10:57.011Z,0
2018-01-02T01:11:57.707Z,0
2018-01-02T01:12:58.368Z,0
2018-01-02T01:13:59.029Z,0
2018-01-02T01:14:59.690Z,0
2018-01-02T01:16:00.350Z,0
2018-01-02T01:17:01.012Z,0
2018-01-02T01:18:01.675Z,0
2018-01-02T01:19:02.331Z,0
2018-01-02T01:20:02.991Z,0
2018-01-02T01:21:03.651Z,0
2018-01-02T01:22:04.311Z,0
2018-01-02T01:23:04.969Z,0
2018-01-02T01:24:05.630Z,0
2018-01-02T01:25:06.290Z,0
2018-01-02T01:26:06.949Z,0
2018-01-02T01:27:07.611Z,0
2018-01-02T01:28:08.272Z,0
2018-01-02T01:29:08.930Z,0
2018-01-02T01:30:09.591Z,0
2018-01-02T01:31:10.251Z,0
2018-01-02T01:32:10.910Z,0
2018-01-02T01:33:11.570Z,0
2018-01-02T01:34:12.231Z,0
2018-01-02T01:35:12.892Z,0
2018-01-02T01:36:13.550Z,0
2018-01-02T01:37:14.211Z,0
2018-01-02T01:38:14.870Z,0
2018-01-02T01:39:15.531Z,0
2018-01-02T01:40:16.228Z,0
2018-01-02T01:41:16.924Z,0
2018-01-02T01:42:17.581Z,0
2018-01-02T01:43:18.243Z,0
2018-01-02T01:44:18.898Z,0
2018-01-02T01:45:19.556Z,0
2018-01-02T01:46:20.215Z,0
2018-01-02T01:47:20.873Z,0
2018-01-02T01:48:21.533Z,0
2018-01-02T01:49:22.192Z,0
2018-01-02T01:50:22.852Z,0
2018-01-02T01:51:23.511Z,0
2018-01-02T01:52:24.207Z,0
2018-01-02T01:53:24.895Z,0
2018-01-02T01:54:25.526Z,0
2018-01-02T01:55:26.220Z,0
2018-01-02T01:56:26.879Z,0
2018-01-02T01:57:27.538Z,0
2018-01-02T01:58:28.198Z,0
2018-01-02T01:59:28.857Z,0
2018-01-02T02:00:29.516Z,0
2018-01-02T02:01:30.195Z,0
2018-01-02T02:02:30.873Z,0
2018-01-02T02:03:31.532Z,0
2018-01-02T02:04:32.192Z,0
2018-01-02T02:05:32.852Z,0
2018-01-02T02:06:33.513Z,0
2018-01-02T02:07:34.174Z,0
2018-01-02T02:08:34.833Z,0
2018-01-02T02:09:35.493Z,0
2018-01-02T02:10:36.152Z,0
2018-01-02T02:11:36.813Z,0
2018-01-02T02:12:37.507Z,0
2018-01-02T02:13:38.166Z,0
2018-01-02T02:14:38.826Z,0
2018-01-02T02:15:39.487Z,0
2018-01-02T02:16:40.147Z,0
2018-01-02T02:17:40.807Z,0
2018-01-02T02:18:41.467Z,0
2018-01-02T02:19:42.127Z,0
2018-01-02T02:20:42.788Z,0
2018-01-02T02:21:43.448Z,0
2018-01-02T02:22:44.107Z,0
2018-01-02T02:23:44.766Z,0
2018-01-02T02:24:45.427Z,0
2018-01-02T02:25:46.085Z,0
2018-01-02T02:26:46.745Z,0
2018-01-02T02:27:47.404Z,0
2018-01-02T02:28:48.063Z,0
2018-01-02T02:29:48.722Z,0
2018-01-02T02:30:49.381Z,0
2018-01-02T02:31:50.040Z,0
2018-01-02T02:32:50.700Z,0
2018-01-02T02:33:51.359Z,0
2018-01-02T02:34:52.017Z,0
2018-01-02T02:35:52.676Z,0
2018-01-02T02:36:53.337Z,0
2018-01-02T02:37:53.995Z,0
2018-01-02T02:38:54.658Z,0
2018-01-02T02:39:55.312Z,0
2018-01-02T02:40:55.971Z,0
2018-01-02T02:41:56.631Z,0
2018-01-02T02:42:57.290Z,0
2018-01-02T02:43:57.950Z,0
2018-01-02T02:44:58.609Z,0
2018-01-02T02:45:59.274Z,0
2018-01-02T02:46:59.927Z,0
2018-01-02T02:48:00.624Z,0
2018-01-02T02:49:01.284Z,0
2018-01-02T02:50:01.946Z,0
2018-01-02T02:51:02.604Z,0
2018-01-02T02:52:03.264Z,0
2018-01-02T02:53:03.922Z,0
2018-01-02T02:54:04.582Z,0
2018-01-02T02:55:05.250Z,0
2018-01-02T02:56:05.906Z,0
2018-01-02T02:57:06.601Z,0
2018-01-02T02:58:07.261Z,0
2018-01-02T02:59:07.921Z,0
2018-01-02T03:00:08.615Z,0
2018-01-02T03:01:09.273Z,0
2018-01-02T03:02:09.932Z,0
2018-01-02T03:03:10.588Z,0
2018-01-02T03:04:11.246Z,0
2018-01-02T03:05:11.903Z,0
2018-01-02T03:06:12.562Z,0
2018-01-02T03:07:13.219Z,0
2018-01-02T03:08:13.877Z,0
2018-01-02T03:09:14.537Z,0
2018-01-02T03:10:15.194Z,0
2018-01-02T03:11:15.854Z,0
2018-01-02T03:12:16.512Z,0
2018-01-02T03:13:17.172Z,0
2018-01-02T03:14:17.830Z,0
2018-01-02T03:15:18.526Z,0
2018-01-02T03:16:19.185Z,0
2018-01-02T03:17:19.845Z,0
2018-01-02T03:18:20.504Z,0
2018-01-02T03:19:21.163Z,0
2018-01-02T03:20:21.820Z,0
2018-01-02T03:21:22.481Z,0
2018-01-02T03:22:23.138Z,0
2018-01-02T03:23:23.797Z,0
2018-01-02T03:24:24.455Z,0
2018-01-02T03:25:25.112Z,0
2018-01-02T03:26:25.771Z,0
2018-01-02T03:27:26.430Z,0
2018-01-02T03:28:27.088Z,0
2018-01-02T03:29:27.747Z,0
2018-01-02T03:30:28.404Z,0
2018-01-02T03:31:29.078Z,0
2018-01-02T03:32:29.722Z,0
2018-01-02T03:33:30.382Z,0
2018-01-02T03:34:31.040Z,0
2018-01-02T03:35:31.698Z,0
2018-01-02T03:36:32.357Z,0
2018-01-02T03:37:33.018Z,0
2018-01-02T03:38:33.712Z,0
2018-01-02T03:39:34.372Z,0
2018-01-02T03:40:35.034Z,0
2018-01-02T03:41:35.696Z,0
2018-01-02T03:42:36.355Z,0
2018-01-02T03:43:37.013Z,0
2018-01-02T03:44:37.673Z,0
2018-01-02T03:45:38.369Z,0
2018-01-02T03:46:39.030Z,0
2018-01-02T03:47:39.691Z,0
2018-01-02T03:48:40.351Z,0
2018-01-02T03:49:41.012Z,0
2018-01-02T03:50:41.672Z,0
2018-01-02T03:51:42.330Z,0
2018-01-02T03:52:42.994Z,0
2018-01-02T03:53:43.649Z,0
2018-01-02T03:54:44.307Z,0
2018-01-02T03:55:44.967Z,0
2018-01-02T03:56:45.625Z,0
2018-01-02T03:57:46.286Z,0
2018-01-02T03:58:46.944Z,0
2018-01-02T03:59:47.638Z,0
2018-01-02T04:00:48.298Z,0
2018-01-02T04:01:48.993Z,0
2018-01-02T04:02:49.653Z,0
2018-01-02T04:03:50.312Z,0
2018-01-02T04:04:50.969Z,0
2018-01-02T04:05:51.629Z,0
2018-01-02T04:06:52.288Z,0
2018-01-02T04:07:52.945Z,0
2018-01-02T04:08:53.603Z,0
2018-01-02T04:09:54.262Z,0
2018-01-02T04:10:54.954Z,0
2018-01-02T04:11:55.615Z,0
2018-01-02T04:12:56.270Z,0
2018-01-02T04:13:56.929Z,0
2018-01-02T04:14:57.588Z,0
2018-01-02T04:15:58.247Z,0
2018-01-02T04:16:58.904Z,0
2018-01-02T04:17:59.562Z,0
2018-01-02T04:19:00.220Z,0
2018-01-02T04:20:00.878Z,0
2018-01-02T04:21:01.538Z,0
2018-01-02T04:22:02.196Z,0
2018-01-02T04:23:02.855Z,0
2018-01-02T04:24:03.548Z,0
2018-01-02T04:25:04.208Z,0
2018-01-02T04:26:04.866Z,0
2018-01-02T04:27:05.525Z,0
2018-01-02T04:28:06.183Z,0
2018-01-02T04:29:06.842Z,0
2018-01-02T04:30:07.501Z,0
2018-01-02T04:31:08.160Z,0
2018-01-02T04:32:08.818Z,0
2018-01-02T04:33:09.477Z,0
2018-01-02T04:34:10.136Z,0
2018-01-02T04:35:10.795Z,0
2018-01-02T04:36:11.453Z,0
2018-01-02T04:37:12.113Z,0
2018-01-02T04:38:12.770Z,0
2018-01-02T04:39:13.429Z,0
2018-01-02T04:40:14.088Z,0
2018-01-02T04:41:14.748Z,0
2018-01-02T04:42:15.407Z,0
2018-01-02T04:43:16.065Z,0
2018-01-02T04:44:16.724Z,0
2018-01-02T04:45:17.384Z,0
2018-01-02T04:46:18.042Z,0
2018-01-02T04:47:18.702Z,0
2018-01-02T04:48:19.397Z,0
2018-01-02T04:49:20.055Z,0
2018-01-02T04:50:20.713Z,0
2018-01-02T04:51:21.372Z,0
2018-01-02T04:52:22.031Z,0
2018-01-02T04:53:22.692Z,0
2018-01-02T04:54:23.352Z,0
2018-01-02T04:55:24.015Z,0
2018-01-02T04:56:24.706Z,0
2018-01-02T04:57:25.362Z,0
2018-01-02T04:58:26.021Z,0
2018-01-02T04:59:26.675Z,0
2018-01-02T05:00:27.332Z,0
2018-01-02T05:01:27.990Z,0
2018-01-02T05:02:28.648Z,0
2018-01-02T05:03:29.304Z,0
2018-01-02T05:04:29.963Z,0
2018-01-02T05:05:30.621Z,0
2018-01-02T05:06:31.279Z,0
2018-01-02T05:07:31.937Z,0
2018-01-02T05:08:32.596Z,0
2018-01-02T05:09:33.255Z,0
2018-01-02T05:10:33.912Z,0
2018-01-02T05:11:34.572Z,0
2018-01-02T05:12:35.233Z,0
2018-01-02T05:13:35.887Z,0
2018-01-02T05:14:36.545Z,0
2018-01-02T05:15:37.204Z,0
2018-01-02T05:16:37.863Z,0
2018-01-02T05:17:38.523Z,0
2018-01-02T05:18:39.183Z,0
2018-01-02T05:19:39.844Z,0
2018-01-02T05:20:40.502Z,0
2018-01-02T05:21:41.166Z,0
2018-01-02T05:22:41.822Z,0
2018-01-02T05:23:42.480Z,0
2018-01-02T05:24:43.138Z,0
2018-01-02T05:25:43.798Z,0
2018-01-02T05:26:44.456Z,0
2018-01-02T05:27:45.115Z,0
2018-01-02T05:28:45.773Z,0
2018-01-02T05:29:46.433Z,0
2018-01-02T05:30:47.090Z,0
2018-01-02T05:31:47.751Z,0
2018-01-02T05:32:48.410Z,0
2018-01-02T05:33:49.067Z,0
2018-01-02T05:34:49.724Z,0
2018-01-02T05:35:50.384Z,0
2018-01-02T05:36:51.041Z,0
2018-01-02T05:37:51.701Z,0
2018-01-02T05:38:52.359Z,0
2018-01-02T05:39:53.018Z,0
2018-01-02T05:40:53.712Z,0
2018-01-02T05:41:54.371Z,0
2018-01-02T05:42:55.031Z,0
2018-01-02T05:43:55.690Z,0
2018-01-02T05:44:56.349Z,0
2018-01-02T05:45:57.259Z,0
2018-01-02T05:46:57.918Z,0
2018-01-02T05:47:58.578Z,0
2018-01-02T05:48:59.237Z,0
2018-01-02T05:49:59.896Z,0
2018-01-02T05:51:00.557Z,0
2018-01-02T05:52:01.217Z,0
2018-01-02T05:53:01.876Z,0
2018-01-02T05:54:02.535Z,0
2018-01-02T05:55:03.193Z,0
2018-01-02T05:56:03.851Z,0
2018-01-02T05:57:04.511Z,0
2018-01-02T05:58:05.169Z,0
2018-01-02T05:59:05.828Z,0
2018-01-02T06:00:06.489Z,0
2018-01-02T06:01:07.146Z,0
2018-01-02T06:02:07.806Z,0
2018-01-02T06:03:08.464Z,0
2018-01-02T06:04:09.125Z,0
2018-01-02T06:05:09.781Z,0
2018-01-02T06:06:10.440Z,0
2018-01-02T06:07:11.099Z,0
2018-01-02T06:08:11.757Z,0
2018-01-02T06:09:12.416Z,0
2018-01-02T06:10:13.074Z,0
2018-01-02T06:11:13.732Z,0
2018-01-02T06:12:14.392Z,0
2018-01-02T06:13:15.049Z,0
2018-01-02T06:14:15.707Z,0
2018-01-02T06:15:16.366Z,0
2018-01-02T06:16:17.024Z,0
2018-01-02T06:17:17.681Z,0
2018-01-02T06:18:18.342Z,0
2018-01-02T06:19:19.000Z,0
2018-01-02T06:20:19.660Z,0
2018-01-02T06:21:20.354Z,0
2018-01-02T06:22:21.012Z,0
2018-01-02T06:23:21.671Z,0
2018-01-02T06:24:22.331Z,0
2018-01-02T06:25:22.990Z,0
2018-01-02T06:26:23.650Z,0
2018-01-02T06:27:24.309Z,0
2018-01-02T06:28:24.968Z,0
2018-01-02T06:29:25.626Z,0
2018-01-02T06:30:26.284Z,0
2018-01-02T06:31:26.943Z,0
2018-01-02T06:32:27.602Z,0
2018-01-02T06:33:28.295Z,0
2018-01-02T06:34:28.954Z,0
2018-01-02T06:35:29.613Z,0
2018-01-02T06:36:30.272Z,0
2018-01-02T06:37:30.930Z,0
2018-01-02T06:38:31.588Z,0
2018-01-02T06:39:32.248Z,0
2018-01-02T06:40:32.908Z,0
2018-01-02T06:41:33.567Z,0
2018-01-02T06:42:34.225Z,0
2018-01-02T06:43:34.944Z,0
2018-01-02T06:44:35.545Z,0
2018-01-02T06:45:36.203Z,0
2018-01-02T06:46:36.861Z,0
2018-01-02T06:47:37.519Z,0
2018-01-02T06:48:38.178Z,0
2018-01-02T06:49:38.836Z,0
2018-01-02T06:50:39.494Z,0
2018-01-02T06:51:40.151Z,4
2018-01-02T06:52:40.811Z,4
2018-01-02T06:53:41.471Z,4
2018-01-02T06:54:42.128Z,0
2018-01-02T06:55:42.788Z,4
2018-01-02T06:56:43.444Z,4
2018-01-02T06:57:44.102Z,4
2018-01-02T06:58:44.761Z,4
2018-01-02T06:59:45.420Z,4
2018-01-02T07:00:46.079Z,8
2018-01-02T07:01:46.738Z,8
2018-01-02T07:02:47.398Z,12
2018-01-02T07:03:48.056Z,12
2018-01-02T07:04:48.716Z,12
2018-01-02T07:05:49.375Z,12
2018-01-02T07:06:50.036Z,12
2018-01-02T07:07:50.695Z,12
2018-01-02T07:08:51.355Z,12
2018-01-02T07:09:52.015Z,20
2018-01-02T07:10:52.673Z,24
2018-01-02T07:11:53.333Z,28
2018-01-02T07:12:53.993Z,28
2018-01-02T07:13:54.653Z,28
2018-01-02T07:14:55.315Z,32
2018-01-02T07:15:55.977Z,40
2018-01-02T07:16:56.637Z,40
2018-01-02T07:17:57.297Z,48
2018-01-02T07:18:57.957Z,48
2018-01-02T07:19:58.654Z,52
2018-01-02T07:20:59.315Z,56
2018-01-02T07:21:59.973Z,64
2018-01-02T07:23:00.634Z,64
2018-01-02T07:24:01.295Z,72
2018-01-02T07:25:01.951Z,76
2018-01-02T07:26:02.612Z,80
2018-01-02T07:27:03.271Z,80
2018-01-02T07:28:03.931Z,88
2018-01-02T07:29:04.589Z,92
2018-01-02T07:30:05.250Z,112
2018-01-02T07:31:05.912Z,128
2018-01-02T07:32:06.608Z,148
2018-01-02T07:33:07.272Z,168
2018-01-02T07:34:07.932Z,188
2018-01-02T07:35:08.594Z,212
2018-01-02T07:36:09.255Z,236
2018-01-02T07:37:09.916Z,260
2018-01-02T07:38:10.579Z,288
2018-01-02T07:39:11.244Z,316
2018-01-02T07:40:11.937Z,340
2018-01-02T07:41:12.604Z,356
2018-01-02T07:42:13.261Z,368
2018-01-02T07:43:13.925Z,376
2018-01-02T07:44:14.588Z,388
2018-01-02T07:45:15.251Z,412
2018-01-02T07:46:15.913Z,428
2018-01-02T07:47:16.574Z,428
2018-01-02T07:48:17.241Z,428
2018-01-02T07:49:17.900Z,448
2018-01-02T07:50:18.564Z,480
2018-01-02T07:51:19.261Z,496
2018-01-02T07:52:19.924Z,496
2018-01-02T07:53:20.585Z,488
2018-01-02T07:54:21.246Z,496
2018-01-02T07:55:21.908Z,528
2018-01-02T07:56:22.571Z,560
2018-01-02T07:57:23.234Z,592
2018-01-02T07:58:23.898Z,596
2018-01-02T07:59:24.561Z,592
2018-01-02T08:00:25.223Z,620
2018-01-02T08:01:25.886Z,652
2018-01-02T08:02:26.600Z,696
2018-01-02T08:03:27.262Z,752
2018-01-02T08:04:27.923Z,800
2018-01-02T08:05:28.586Z,824
2018-01-02T08:06:29.250Z,840
2018-01-02T08:07:29.914Z,844
2018-01-02T08:08:30.576Z,860
2018-01-02T08:09:31.237Z,876
2018-01-02T08:10:31.901Z,876
2018-01-02T08:11:32.588Z,884
2018-01-02T08:12:33.225Z,884
2018-01-02T08:13:33.887Z,936
2018-01-02T08:14:34.552Z,1028
2018-01-02T08:15:35.214Z,1088
2018-01-02T08:16:35.880Z,1148
2018-01-02T08:17:36.544Z,1244
2018-01-02T08:18:37.205Z,1360
2018-01-02T08:19:37.866Z,1484
2018-01-02T08:20:38.530Z,1632
2018-01-02T08:21:39.194Z,1740
2018-01-02T08:22:39.855Z,1796
2018-01-02T08:23:40.519Z,1820
2018-01-02T08:24:41.180Z,1856
2018-01-02T08:25:41.842Z,1920
2018-01-02T08:26:42.504Z,2004
2018-01-02T08:27:43.168Z,2060
2018-01-02T08:28:43.839Z,2064
2018-01-02T08:29:44.496Z,2060
2018-01-02T08:30:45.155Z,2044
2018-01-02T08:31:45.818Z,1992
2018-01-02T08:32:46.483Z,1912
2018-01-02T08:33:47.179Z,1912
2018-01-02T08:34:47.843Z,2032
2018-01-02T08:35:48.505Z,2200
2018-01-02T08:36:49.167Z,2256
2018-01-02T08:37:49.829Z,2192
2018-01-02T08:38:50.492Z,2196
2018-01-02T08:39:51.154Z,2296
2018-01-02T08:40:51.817Z,2312
2018-01-02T08:41:52.481Z,2268
2018-01-02T08:42:53.145Z,2304
2018-01-02T08:43:53.807Z,2440
2018-01-02T08:44:54.468Z,2464
2018-01-02T08:45:55.131Z,2392
2018-01-02T08:46:55.794Z,2168
2018-01-02T08:47:56.458Z,1912
2018-01-02T08:48:57.122Z,1680
2018-01-02T08:49:57.783Z,1604
2018-01-02T08:50:58.449Z,1660
2018-01-02T08:51:59.110Z,1836
2018-01-02T08:52:59.772Z,2072
2018-01-02T08:54:00.472Z,2376
2018-01-02T08:55:01.139Z,2408
2018-01-02T08:56:01.836Z,2128
2018-01-02T08:57:02.501Z,1820
2018-01-02T08:58:03.165Z,1668
2018-01-02T08:59:03.866Z,1792
2018-01-02T09:00:04.528Z,1952
2018-01-02T09:01:05.191Z,1980
2018-01-02T09:02:05.852Z,1984
2018-01-02T09:03:06.521Z,1956
2018-01-02T09:04:07.179Z,1840
2018-01-02T09:05:07.844Z,1756
2018-01-02T09:06:08.507Z,1688
2018-01-02T09:07:09.170Z,1540
2018-01-02T09:08:09.833Z,1412
2018-01-02T09:09:10.498Z,1388
2018-01-02T09:10:11.162Z,1444
2018-01-02T09:11:11.826Z,1544
2018-01-02T09:12:12.489Z,1584
2018-01-02T09:13:13.156Z,1532
2018-01-02T09:14:13.817Z,1476
2018-01-02T09:15:14.481Z,1480
2018-01-02T09:16:15.180Z,1476
2018-01-02T09:17:15.841Z,1532
2018-01-02T09:18:16.504Z,1712
2018-01-02T09:19:17.167Z,2060
2018-01-02T09:20:17.828Z,2396
2018-01-02T09:21:18.491Z,2556
2018-01-02T09:22:19.190Z,2516
2018-01-02T09:23:19.851Z,2396
2018-01-02T09:24:20.516Z,2440
2018-01-02T09:25:21.211Z,2584
2018-01-02T09:26:21.873Z,2632
2018-01-02T09:27:22.536Z,2672
2018-01-02T09:28:23.200Z,2724
2018-01-02T09:29:23.866Z,2680
2018-01-02T09:30:24.528Z,2604
2018-01-02T09:31:25.190Z,2476
2018-01-02T09:32:25.852Z,2364
2018-01-02T09:33:26.516Z,2328
2018-01-02T09:34:27.180Z,2332
2018-01-02T09:35:27.844Z,2328
2018-01-02T09:36:28.507Z,2304
2018-01-02T09:37:29.169Z,2356
2018-01-02T09:38:29.832Z,2548
2018-01-02T09:39:30.494Z,2848
2018-01-02T09:40:31.157Z,3116
2018-01-02T09:41:31.822Z,3228
2018-01-02T09:42:32.488Z,3200
2018-01-02T09:43:33.150Z,3040
2018-01-02T09:44:33.813Z,2852
2018-01-02T09:45:34.476Z,2728
2018-01-02T09:46:35.141Z,2544
2018-01-02T09:47:35.804Z,2292
2018-01-02T09:48:36.517Z,2148
2018-01-02T09:49:37.180Z,2168
2018-01-02T09:50:37.847Z,2284
2018-01-02T09:51:38.511Z,2480
2018-01-02T09:52:39.176Z,2748
2018-01-02T09:53:39.840Z,2916
2018-01-02T09:54:40.503Z,3000
2018-01-02T09:55:41.168Z,3028
2018-01-02T09:56:41.834Z,2984
2018-01-02T09:57:42.496Z,2948
2018-01-02T09:58:43.160Z,2952
2018-01-02T09:59:43.823Z,2908
2018-01-02T10:00:44.488Z,2768
2018-01-02T10:01:45.185Z,2692
2018-01-02T10:02:45.849Z,2796
2018-01-02T10:03:46.513Z,2988
2018-01-02T10:04:47.178Z,3120
2018-01-02T10:05:47.843Z,3136
2018-01-02T10:06:48.507Z,3092
2018-01-02T10:07:49.179Z,3052
2018-01-02T10:08:49.843Z,3008
2018-01-02T10:09:50.501Z,2972
2018-01-02T10:10:51.168Z,2956
2018-01-02T10:11:51.831Z,2904
2018-01-02T10:12:52.494Z,2840
2018-01-02T10:13:53.159Z,2776
2018-01-02T10:14:53.823Z,2668
2018-01-02T10:15:54.489Z,2608
2018-01-02T10:16:55.190Z,2620
2018-01-02T10:17:55.855Z,2620
2018-01-02T10:18:56.520Z,2612
2018-01-02T10:19:57.197Z,2580
2018-01-02T10:20:57.879Z,2568
2018-01-02T10:21:58.514Z,2524
2018-01-02T10:22:59.178Z,2460
2018-01-02T10:23:59.842Z,2448
2018-01-02T10:25:00.504Z,2484
2018-01-02T10:26:01.169Z,2488
2018-01-02T10:27:01.831Z,2520
2018-01-02T10:28:02.496Z,2672
2018-01-02T10:29:03.162Z,2868
2018-01-02T10:30:03.829Z,2884
2018-01-02T10:31:04.492Z,2800
2018-01-02T10:32:05.155Z,2676
2018-01-02T10:33:05.820Z,2532
2018-01-02T10:34:06.485Z,2432
2018-01-02T10:35:07.149Z,2416
2018-01-02T10:36:07.813Z,2528
2018-01-02T10:37:08.477Z,2620
2018-01-02T10:38:09.141Z,2816
2018-01-02T10:39:09.805Z,2824
2018-01-02T10:40:10.470Z,3312
2018-01-02T10:41:11.136Z,2488
2018-01-02T10:42:11.801Z,2400
2018-01-02T10:43:12.479Z,2364
2018-01-02T10:44:13.127Z,2396
2018-01-02T10:45:13.827Z,2376
2018-01-02T10:46:14.493Z,2412
2018-01-02T10:47:15.156Z,2636
2018-01-02T10:48:15.820Z,2696
2018-01-02T10:49:16.484Z,2772
2018-01-02T10:50:17.148Z,2804
2018-01-02T10:51:17.811Z,2960
2018-01-02T10:52:18.512Z,3392
2018-01-02T10:53:19.177Z,3948
2018-01-02T10:54:19.841Z,4180
2018-01-02T10:55:20.509Z,4576
2018-01-02T10:56:21.174Z,4944
2018-01-02T10:57:21.839Z,5076
2018-01-02T10:58:22.504Z,4020
2018-01-02T10:59:23.171Z,3876
2018-01-02T11:00:23.836Z,3592
2018-01-02T11:01:24.501Z,4440
2018-01-02T11:02:25.165Z,3136
2018-01-02T11:03:25.835Z,3036
2018-01-02T11:04:26.500Z,3044
2018-01-02T11:05:27.165Z,3520
2018-01-02T11:06:27.831Z,3248
2018-01-02T11:07:28.496Z,3808
2018-01-02T11:08:29.163Z,3224
2018-01-02T11:09:29.828Z,4608
2018-01-02T11:10:30.494Z,3852
2018-01-02T11:11:31.158Z,4056
2018-01-02T11:12:31.823Z,3580
2018-01-02T11:13:32.490Z,3592
2018-01-02T11:14:33.188Z,3808
2018-01-02T11:15:33.822Z,3956
2018-01-02T11:16:34.488Z,4148
2018-01-02T11:17:35.159Z,4360
2018-01-02T11:18:35.856Z,4824
2018-01-02T11:19:36.523Z,5436
2018-01-02T11:20:37.189Z,4700
2018-01-02T11:21:37.889Z,4700
2018-01-02T11:22:38.554Z,4820
2018-01-02T11:23:39.222Z,4836
2018-01-02T11:24:39.923Z,5060
2018-01-02T11:25:40.587Z,4668
2018-01-02T11:26:41.256Z,5824
2018-01-02T11:27:41.923Z,5060
2018-01-02T11:28:42.588Z,4444
2018-01-02T11:29:43.254Z,4472
2018-01-02T11:30:43.921Z,3796
2018-01-02T11:31:44.589Z,3744
2018-01-02T11:32:45.252Z,4224
2018-01-02T11:33:45.917Z,6228
2018-01-02T11:34:46.583Z,5836
2018-01-02T11:35:47.249Z,4932
2018-01-02T11:36:47.917Z,4280
2018-01-02T11:37:48.584Z,3516
2018-01-02T11:38:49.251Z,3324
2018-01-02T11:39:49.918Z,3308
2018-01-02T11:40:50.585Z,3128
2018-01-02T11:41:51.250Z,3016
2018-01-02T11:42:51.913Z,2836
2018-01-02T11:43:52.578Z,2612
2018-01-02T11:44:53.244Z,2368
2018-01-02T11:45:53.909Z,2300
2018-01-02T11:46:54.576Z,2248
2018-01-02T11:47:55.243Z,2372
2018-01-02T11:48:55.908Z,2380
2018-01-02T11:49:56.573Z,3172
2018-01-02T11:50:57.240Z,2000
2018-01-02T11:51:57.904Z,1828
2018-01-02T11:52:58.570Z,1792
2018-01-02T11:53:59.234Z,3552
2018-01-02T11:54:59.899Z,3588
2018-01-02T11:56:00.563Z,3616
2018-01-02T11:57:01.262Z,3280
2018-01-02T11:58:01.927Z,2464
2018-01-02T11:59:02.591Z,2228
2018-01-02T12:00:03.256Z,2200
2018-01-02T12:01:03.959Z,2348
2018-01-02T12:02:04.589Z,3344
2018-01-02T12:03:05.254Z,4216
2018-01-02T12:04:05.919Z,4440
2018-01-02T12:05:06.584Z,2816
2018-01-02T12:06:07.249Z,3500
2018-01-02T12:07:07.914Z,3520
2018-01-02T12:08:08.578Z,3204
2018-01-02T12:09:09.242Z,4544
2018-01-02T12:10:09.907Z,4580
2018-01-02T12:11:10.573Z,3232
2018-01-02T12:12:11.239Z,3136
2018-01-02T12:13:11.908Z,3236
2018-01-02T12:14:12.569Z,2992
2018-01-02T12:15:13.285Z,2944
2018-01-02T12:16:13.949Z,2888
2018-01-02T12:17:14.613Z,2912
2018-01-02T12:18:15.279Z,2984
2018-01-02T12:19:15.944Z,3024
2018-01-02T12:20:16.608Z,2852
2018-01-02T12:21:17.275Z,2728
2018-01-02T12:22:17.940Z,2696
2018-01-02T12:23:18.605Z,2876
2018-01-02T12:24:19.271Z,2836
2018-01-02T12:25:19.936Z,2648
2018-01-02T12:26:20.602Z,2488
2018-01-02T12:27:21.269Z,2288
2018-01-02T12:28:21.930Z,2056
2018-01-02T12:29:22.593Z,1924
2018-01-02T12:30:23.261Z,1932
2018-01-02T12:31:23.924Z,2008
2018-01-02T12:32:24.590Z,2132
2018-01-02T12:33:25.256Z,3264
2018-01-02T12:34:25.921Z,2660
2018-01-02T12:35:26.583Z,2628
2018-01-02T12:36:27.249Z,2580
2018-01-02T12:37:27.948Z,2476
2018-01-02T12:38:28.612Z,2412
2018-01-02T12:39:29.278Z,2420
2018-01-02T12:40:29.943Z,2360
2018-01-02T12:41:30.608Z,2392
2018-01-02T12:42:31.272Z,2336
2018-01-02T12:43:31.936Z,2364
2018-01-02T12:44:32.601Z,2472
2018-01-02T12:45:33.267Z,2436
2018-01-02T12:46:33.935Z,2204
2018-01-02T12:47:34.598Z,1880
2018-01-02T12:48:35.262Z,1676
2018-01-02T12:49:35.927Z,1704
2018-01-02T12:50:36.591Z,1748
2018-01-02T12:51:37.256Z,1856
2018-01-02T12:52:37.920Z,1852
2018-01-02T12:53:38.584Z,1828
2018-01-02T12:54:39.248Z,1780
2018-01-02T12:55:39.914Z,1852
2018-01-02T12:56:40.613Z,1720
2018-01-02T12:57:41.277Z,1684
2018-01-02T12:58:41.943Z,1772
2018-01-02T12:59:42.609Z,1832
2018-01-02T13:00:43.275Z,1588
2018-01-02T13:01:43.939Z,1492
2018-01-02T13:02:44.604Z,1472
2018-01-02T13:03:45.268Z,1524
2018-01-02T13:04:45.933Z,1596
2018-01-02T13:05:46.598Z,1572
2018-01-02T13:06:47.298Z,1492
2018-01-02T13:07:47.964Z,1388
2018-01-02T13:08:48.628Z,1488
2018-01-02T13:09:49.292Z,1384
2018-01-02T13:10:49.956Z,1388
2018-01-02T13:11:50.619Z,1584
2018-01-02T13:12:51.284Z,1676
2018-01-02T13:13:51.959Z,1724
2018-01-02T13:14:52.618Z,1600
2018-01-02T13:15:53.332Z,1608
2018-01-02T13:16:53.998Z,1700
2018-01-02T13:17:54.662Z,1756
2018-01-02T13:18:55.326Z,1936
2018-01-02T13:19:55.989Z,1900
2018-01-02T13:20:56.653Z,1832
2018-01-02T13:21:57.317Z,1940
2018-01-02T13:22:58.019Z,2064
2018-01-02T13:23:58.697Z,2204
2018-01-02T13:24:59.349Z,2324
2018-01-02T13:26:00.017Z,2280
2018-01-02T13:27:00.679Z,2124
2018-01-02T13:28:01.348Z,1936
2018-01-02T13:29:02.008Z,1808
2018-01-02T13:30:02.674Z,1808
2018-01-02T13:31:03.338Z,1816
2018-01-02T13:32:04.001Z,1808
2018-01-02T13:33:04.664Z,1824
2018-01-02T13:34:05.331Z,1908
2018-01-02T13:35:05.995Z,1996
2018-01-02T13:36:06.662Z,2076
2018-01-02T13:37:07.370Z,2140
2018-01-02T13:38:08.031Z,2168
2018-01-02T13:39:08.694Z,2164
2018-01-02T13:40:09.360Z,2100
2018-01-02T13:41:10.024Z,2024
2018-01-02T13:42:10.690Z,1980
2018-01-02T13:43:11.355Z,1984
2018-01-02T13:44:12.019Z,1936
2018-01-02T13:45:12.683Z,1908
2018-01-02T13:46:13.348Z,1660
2018-01-02T13:47:14.011Z,1520
2018-01-02T13:48:14.678Z,1576
2018-01-02T13:49:15.377Z,1616
2018-01-02T13:50:16.044Z,1376
2018-01-02T13:51:16.708Z,1048
2018-01-02T13:52:17.375Z,1104
2018-01-02T13:53:18.040Z,1120
2018-01-02T13:54:18.703Z,820
2018-01-02T13:55:19.368Z,648
2018-01-02T13:56:20.031Z,696
2018-01-02T13:57:20.695Z,680
2018-01-02T13:58:21.358Z,880
2018-01-02T13:59:22.021Z,1112
2018-01-02T14:00:22.685Z,1124
2018-01-02T14:01:23.349Z,1188
2018-01-02T14:02:24.013Z,1232
2018-01-02T14:03:24.680Z,1232
2018-01-02T14:04:25.346Z,1128
2018-01-02T14:05:26.010Z,1088
2018-01-02T14:06:26.673Z,1052
2018-01-02T14:07:27.338Z,976
2018-01-02T14:08:28.001Z,896
2018-01-02T14:09:28.699Z,700
2018-01-02T14:10:29.362Z,520
2018-01-02T14:11:30.025Z,440
2018-01-02T14:12:30.689Z,404